Time;durP1;ratioP1;P1;durP2;ratioP2;P2;SDS_P1;SDS_P2;PMS_P1;PMS_P2;Temp;Humidity;BMP_temperature;BMP_pressure;BME280_temperature;BME280_humidity;BME280_pressure;Samples;Min_cycle;Max_cycle;Signal;HPM_P1;HPM_P2
2023/07/21 00:01:56;;;;;;;5.90;2.07;;;;;;;;;;5027264;28;20552;-81
2023/07/21 00:04:24;;;;;;;3.37;2.50;;;;;;;;;;5016824;28;20453;-81
2023/07/21 00:06:51;;;;;;;2.70;2.47;;;;;;;;;;5021794;28;20902;-81
2023/07/21 00:09:18;;;;;;;2.33;2.13;;;;;;;;;;5033594;28;20447;-82
2023/07/21 00:11:46;;;;;;;2.37;2.07;;;;;;;;;;5039079;28;20435;-82
2023/07/21 00:14:13;;;;;;;2.70;2.30;;;;;;;;;;5033370;28;20448;-82
2023/07/21 00:16:41;;;;;;;2.80;2.23;;;;;;;;;;5034143;28;20487;-82
2023/07/21 00:19:07;;;;;;;4.90;2.77;;;;;;;;;;5025929;28;20523;-82
2023/07/21 00:21:34;;;;;;;3.20;2.70;;;;;;;;;;5031646;28;20472;-81
2023/07/21 00:24:04;;;;;;;3.37;3.07;;;;;;;;;;5030446;28;20496;-81
2023/07/21 00:26:31;;;;;;;2.07;1.97;;;;;;;;;;5039712;28;20475;-82
2023/07/21 00:28:58;;;;;;;3.67;3.03;;;;;;;;;;5047275;28;20533;-81
2023/07/21 00:31:24;;;;;;;4.23;2.80;;;;;;;;;;5047333;28;20449;-81
2023/07/21 00:33:52;;;;;;;8.50;2.90;;;;;;;;;;5046763;28;20449;-81
2023/07/21 00:36:18;;;;;;;3.07;2.33;;;;;;;;;;5043917;28;20464;-81
2023/07/21 00:38:46;;;;;;;3.87;1.90;;;;;;;;;;5032397;28;20508;-82
2023/07/21 00:41:13;;;;;;;5.23;2.40;;;;;;;;;;5032999;28;20483;-81
2023/07/21 00:43:39;;;;;;;9.90;2.47;;;;;;;;;;5027895;28;20495;-81
2023/07/21 00:46:06;;;;;;;5.10;2.30;;;;;;;;;;5026174;28;20444;-81
2023/07/21 00:48:32;;;;;;;5.93;2.40;;;;;;;;;;5025001;28;20469;-82
2023/07/21 00:51:00;;;;;;;4.60;1.80;;;;;;;;;;5032873;28;20466;-82
2023/07/21 00:53:27;;;;;;;4.93;2.17;;;;;;;;;;5029272;28;20436;-81
2023/07/21 00:55:55;;;;;;;4.80;1.73;;;;;;;;;;5032502;28;20464;-82
2023/07/21 00:58:22;;;;;;;4.07;2.27;;;;;;;;;;5032878;28;20455;-81
2023/07/21 01:00:48;;;;;;;7.00;2.20;;;;;;;;;;5032543;28;20468;-82
2023/07/21 01:03:16;;;;;;;11.17;2.40;;;;;;;;;;5028309;28;20432;-81
2023/07/21 01:05:45;;;;;;;4.13;1.87;;;;;;;;;;5021762;28;21040;-82
2023/07/21 01:08:13;;;;;;;12.50;2.60;;;;;;;;;;5028106;28;20971;-81
2023/07/21 01:10:40;;;;;;;7.60;1.40;;;;;;;;;;5036495;28;20426;-81
2023/07/21 01:13:07;;;;;;;8.10;1.77;;;;;;;;;;5033990;28;20764;-81
2023/07/21 01:15:35;;;;;;;6.90;1.83;;;;;;;;;;5031108;28;20526;-82
2023/07/21 01:18:03;;;;;;;5.87;1.60;;;;;;;;;;5036679;28;20463;-82
2023/07/21 01:20:30;;;;;;;2.93;1.50;;;;;;;;;;5035727;28;20438;-82
2023/07/21 01:22:58;;;;;;;2.47;1.73;;;;;;;;;;5026930;28;20951;-81
2023/07/21 01:25:28;;;;;;;4.40;2.10;;;;;;;;;;5036107;28;20435;-82
2023/07/21 01:27:55;;;;;;;6.17;2.47;;;;;;;;;;5029960;28;20974;-81
2023/07/21 01:30:22;;;;;;;8.10;2.30;;;;;;;;;;5030412;28;20961;-81
2023/07/21 01:32:50;;;;;;;13.20;2.33;;;;;;;;;;5055876;28;20472;-81
2023/07/21 01:35:18;;;;;;;6.27;2.07;;;;;;;;;;5054358;28;20467;-82
2023/07/21 01:37:45;;;;;;;14.20;2.73;;;;;;;;;;5049034;28;20483;-82
2023/07/21 01:40:13;;;;;;;6.33;2.50;;;;;;;;;;5050701;28;20455;-82
2023/07/21 01:42:42;;;;;;;7.47;2.60;;;;;;;;;;5029085;28;20468;-81
2023/07/21 01:45:09;;;;;;;4.13;2.87;;;;;;;;;;5032265;28;20420;-82
2023/07/21 01:47:35;;;;;;;3.07;2.37;;;;;;;;;;5032535;28;20454;-82
2023/07/21 01:50:03;;;;;;;2.53;2.33;;;;;;;;;;5031768;28;20424;-81
2023/07/21 01:52:30;;;;;;;13.20;2.53;;;;;;;;;;5034590;28;20843;-81
2023/07/21 01:54:59;;;;;;;6.53;2.40;;;;;;;;;;5034022;28;20491;-81
2023/07/21 01:57:27;;;;;;;2.70;2.50;;;;;;;;;;5029555;28;20971;-81
2023/07/21 01:59:58;;;;;;;6.30;2.20;;;;;;;;;;5030558;28;20936;-82
2023/07/21 02:02:25;;;;;;;2.43;2.23;;;;;;;;;;5025663;28;20481;-81
2023/07/21 02:04:51;;;;;;;2.60;2.40;;;;;;;;;;5035622;28;20444;-81
2023/07/21 02:07:20;;;;;;;2.43;2.20;;;;;;;;;;5031337;28;20969;-81
2023/07/21 02:09:47;;;;;;;2.33;2.13;;;;;;;;;;5035428;28;20457;-81
2023/07/21 02:12:13;;;;;;;3.90;2.67;;;;;;;;;;5028310;28;20470;-81
2023/07/21 02:14:40;;;;;;;2.30;2.10;;;;;;;;;;5034105;28;20885;-82
2023/07/21 02:17:08;;;;;;;5.70;3.07;;;;;;;;;;5030950;28;20485;-81
2023/07/21 02:19:34;;;;;;;8.17;2.90;;;;;;;;;;5022604;28;21020;-81
2023/07/21 02:22:01;;;;;;;8.83;2.80;;;;;;;;;;5030722;28;20836;-81
2023/07/21 02:24:27;;;;;;;8.57;4.00;;;;;;;;;;5024586;28;20469;-81
2023/07/21 02:26:54;;;;;;;11.27;2.80;;;;;;;;;;5031273;28;20472;-81
2023/07/21 02:29:20;;;;;;;11.40;2.77;;;;;;;;;;5033867;28;20472;-81
2023/07/21 02:31:48;;;;;;;6.77;2.80;;;;;;;;;;5023802;28;20481;-82
2023/07/21 02:34:16;;;;;;;9.53;3.40;;;;;;;;;;5028486;28;20436;-81
2023/07/21 02:36:44;;;;;;;7.97;2.90;;;;;;;;;;5028672;28;20440;-82
2023/07/21 02:39:10;;;;;;;5.90;3.00;;;;;;;;;;5029129;28;20471;-81
2023/07/21 02:41:36;;;;;;;5.23;2.67;;;;;;;;;;5024486;28;20476;-81
2023/07/21 02:44:03;;;;;;;19.20;3.17;;;;;;;;;;5029200;28;20435;-81
2023/07/21 02:46:29;;;;;;;9.87;3.27;;;;;;;;;;5025423;28;20469;-81
2023/07/21 02:48:55;;;;;;;10.03;3.10;;;;;;;;;;5031292;28;20835;-81
2023/07/21 02:51:23;;;;;;;5.80;3.67;;;;;;;;;;5020478;28;20460;-81
2023/07/21 02:53:51;;;;;;;4.50;3.10;;;;;;;;;;5027723;28;20419;-81
2023/07/21 02:56:17;;;;;;;4.60;2.73;;;;;;;;;;5033076;28;21035;-81
2023/07/21 02:58:44;;;;;;;5.43;3.20;;;;;;;;;;5034965;28;20515;-81
2023/07/21 03:01:12;;;;;;;3.40;3.10;;;;;;;;;;5034037;28;20450;-81
2023/07/21 03:03:39;;;;;;;4.97;3.43;;;;;;;;;;5026957;28;20456;-81
2023/07/21 03:06:06;;;;;;;5.43;3.33;;;;;;;;;;5025348;28;20803;-81
2023/07/21 03:08:34;;;;;;;10.40;3.30;;;;;;;;;;5028795;28;20451;-81
2023/07/21 03:11:01;;;;;;;5.10;2.57;;;;;;;;;;5032834;28;20473;-82
2023/07/21 03:13:28;;;;;;;17.20;4.20;;;;;;;;;;5023592;28;20450;-81
2023/07/21 03:15:54;;;;;;;8.57;2.83;;;;;;;;;;5024675;28;20977;-81
2023/07/21 03:18:20;;;;;;;12.83;3.50;;;;;;;;;;5034365;28;20500;-81
2023/07/21 03:20:49;;;;;;;8.73;3.20;;;;;;;;;;5031801;28;20801;-81
2023/07/21 03:23:15;;;;;;;7.00;2.50;;;;;;;;;;5031463;28;20463;-81
2023/07/21 03:25:46;;;;;;;12.53;3.03;;;;;;;;;;5029777;28;20459;-82
2023/07/21 03:28:12;;;;;;;9.53;2.73;;;;;;;;;;5027142;28;20551;-81
2023/07/21 03:30:39;;;;;;;5.30;2.60;;;;;;;;;;5033190;28;20445;-81
2023/07/21 03:33:05;;;;;;;5.70;3.17;;;;;;;;;;5033760;28;20468;-81
2023/07/21 03:35:32;;;;;;;4.43;3.23;;;;;;;;;;5032228;28;20796;-82
2023/07/21 03:37:59;;;;;;;4.33;4.00;;;;;;;;;;5034047;28;20496;-81
2023/07/21 03:40:27;;;;;;;3.30;2.93;;;;;;;;;;5024805;28;20464;-82
2023/07/21 03:42:54;;;;;;;4.23;3.20;;;;;;;;;;5031927;28;20468;-81
2023/07/21 03:45:21;;;;;;;6.30;3.40;;;;;;;;;;5024162;28;20459;-82
2023/07/21 03:47:48;;;;;;;2.53;2.33;;;;;;;;;;5051967;28;20444;-81
2023/07/21 03:50:14;;;;;;;5.17;3.60;;;;;;;;;;5054105;28;20450;-81
2023/07/21 03:52:42;;;;;;;10.13;2.97;;;;;;;;;;5029422;28;20986;-82
2023/07/21 03:55:09;;;;;;;4.37;2.77;;;;;;;;;;5033456;28;20448;-81
2023/07/21 03:57:36;;;;;;;13.90;4.40;;;;;;;;;;5031660;28;20458;-81
2023/07/21 04:00:06;;;;;;;8.73;3.57;;;;;;;;;;5029093;28;20894;-81
2023/07/21 04:02:34;;;;;;;18.77;4.50;;;;;;;;;;5026269;28;20472;-81
2023/07/21 04:05:00;;;;;;;10.23;4.03;;;;;;;;;;5030718;28;20449;-80
2023/07/21 04:07:27;;;;;;;8.77;3.87;;;;;;;;;;5026238;28;20493;-81
2023/07/21 04:09:54;;;;;;;8.63;3.40;;;;;;;;;;5033128;28;20451;-81
2023/07/21 04:12:20;;;;;;;9.13;3.70;;;;;;;;;;5022077;28;20843;-82
2023/07/21 04:14:47;;;;;;;4.57;3.33;;;;;;;;;;5025090;28;20982;-80
2023/07/21 04:17:16;;;;;;;9.80;4.20;;;;;;;;;;5031474;28;20487;-81
2023/07/21 04:19:42;;;;;;;7.00;3.20;;;;;;;;;;5027391;28;20534;-81
2023/07/21 04:22:08;;;;;;;8.47;3.57;;;;;;;;;;5032417;28;20443;-80
2023/07/21 04:24:35;;;;;;;6.00;3.93;;;;;;;;;;5029624;28;20461;-81
2023/07/21 04:27:01;;;;;;;4.57;3.20;;;;;;;;;;5021591;28;20447;-81
2023/07/21 04:29:28;;;;;;;6.43;3.63;;;;;;;;;;5026565;28;20435;-80
2023/07/21 04:31:55;;;;;;;11.33;3.50;;;;;;;;;;5044540;28;20453;-81
2023/07/21 04:34:23;;;;;;;21.50;4.63;;;;;;;;;;5051335;28;20448;-82
2023/07/21 04:36:50;;;;;;;13.57;4.03;;;;;;;;;;5043243;28;20438;-81
2023/07/21 04:39:16;;;;;;;6.83;3.47;;;;;;;;;;5050184;28;20533;-81
2023/07/21 04:41:43;;;;;;;7.87;4.00;;;;;;;;;;5048132;28;20472;-81
2023/07/21 04:44:10;;;;;;;12.77;4.20;;;;;;;;;;5046736;28;20936;-81
2023/07/21 04:46:36;;;;;;;4.80;3.93;;;;;;;;;;5044859;28;20473;-82
2023/07/21 04:49:07;;;;;;;8.60;3.60;;;;;;;;;;5034698;28;20477;-81
2023/07/21 04:51:35;;;;;;;10.40;3.90;;;;;;;;;;5036476;28;20472;-81
2023/07/21 04:54:02;;;;;;;8.87;3.80;;;;;;;;;;5029984;28;20453;-80
2023/07/21 04:56:28;;;;;;;10.80;4.47;;;;;;;;;;5035723;28;20469;-80
2023/07/21 04:58:55;;;;;;;4.40;3.50;;;;;;;;;;5031788;28;20978;-80
2023/07/21 05:01:21;;;;;;;7.93;3.40;;;;;;;;;;5027213;28;20465;-80
2023/07/21 05:03:48;;;;;;;4.67;3.70;;;;;;;;;;5021934;28;20453;-80
2023/07/21 05:06:14;;;;;;;7.37;3.97;;;;;;;;;;5030539;28;20992;-80
2023/07/21 05:08:43;;;;;;;4.43;4.03;;;;;;;;;;5031503;28;20468;-82
2023/07/21 05:11:10;;;;;;;7.20;5.30;;;;;;;;;;5029546;28;20487;-80
2023/07/21 05:13:36;;;;;;;10.80;5.67;;;;;;;;;;5035862;28;20457;-80
2023/07/21 05:16:03;;;;;;;10.13;4.30;;;;;;;;;;5034288;28;20464;-80
2023/07/21 05:18:29;;;;;;;7.00;5.00;;;;;;;;;;5022421;28;20467;-80
2023/07/21 05:20:55;;;;;;;11.43;6.83;;;;;;;;;;5032027;28;20464;-80
2023/07/21 05:23:22;;;;;;;10.03;5.40;;;;;;;;;;5033376;28;20468;-80
2023/07/21 05:25:57;;;;;;;10.97;9.53;;;;;;;;;;5027714;28;20477;-79
2023/07/21 05:28:24;;;;;;;13.03;8.47;;;;;;;;;;5031359;28;21080;-80
2023/07/21 05:30:50;;;;;;;12.23;7.70;;;;;;;;;;5029385;28;20473;-80
2023/07/21 05:33:16;;;;;;;13.77;8.60;;;;;;;;;;5035226;28;20822;-79
2023/07/21 05:35:43;;;;;;;15.67;7.60;;;;;;;;;;5034417;28;20480;-79
2023/07/21 05:38:10;;;;;;;8.60;7.13;;;;;;;;;;5036101;28;20431;-79
2023/07/21 05:40:37;;;;;;;14.30;8.17;;;;;;;;;;5036296;28;20441;-80
2023/07/21 05:43:05;;;;;;;9.73;8.03;;;;;;;;;;5054450;28;20481;-79
2023/07/21 05:45:31;;;;;;;14.47;8.83;;;;;;;;;;5052905;28;20423;-80
2023/07/21 05:47:58;;;;;;;10.67;7.60;;;;;;;;;;5050907;28;20829;-79
2023/07/21 05:50:26;;;;;;;12.80;9.20;;;;;;;;;;5052294;28;20419;-80
2023/07/21 05:52:52;;;;;;;10.93;8.10;;;;;;;;;;5052417;28;20465;-79
2023/07/21 05:55:19;;;;;;;10.90;8.83;;;;;;;;;;5045957;28;20454;-79
2023/07/21 05:57:45;;;;;;;13.40;8.97;;;;;;;;;;5051605;28;20443;-79
2023/07/21 06:00:15;;;;;;;12.80;10.40;;;;;;;;;;5052215;28;20469;-80
2023/07/21 06:02:42;;;;;;;12.70;9.40;;;;;;;;;;5054879;28;20819;-79
2023/07/21 06:05:09;;;;;;;14.03;10.30;;;;;;;;;;5048098;28;20445;-80
2023/07/21 06:07:35;;;;;;;15.30;9.67;;;;;;;;;;5054346;28;20446;-79
2023/07/21 06:10:02;;;;;;;13.47;10.97;;;;;;;;;;5047861;28;20422;-79
2023/07/21 06:12:29;;;;;;;11.27;8.80;;;;;;;;;;5054357;28;20454;-79
2023/07/21 06:14:56;;;;;;;11.63;10.30;;;;;;;;;;5050321;28;20443;-79
2023/07/21 06:17:26;;;;;;;11.03;9.63;;;;;;;;;;5053108;28;20476;-79
2023/07/21 06:19:52;;;;;;;14.53;11.53;;;;;;;;;;5054949;28;20450;-78
2023/07/21 06:22:19;;;;;;;13.40;10.23;;;;;;;;;;5053329;28;20475;-79
2023/07/21 06:24:45;;;;;;;12.53;9.33;;;;;;;;;;5054120;28;20531;-81
2023/07/21 06:27:13;;;;;;;15.80;10.07;;;;;;;;;;5048129;28;20522;-80
2023/07/21 06:29:39;;;;;;;13.53;12.23;;;;;;;;;;5050431;28;20814;-78
2023/07/21 06:32:06;;;;;;;15.43;10.57;;;;;;;;;;5047532;28;21005;-79
2023/07/21 06:34:34;;;;;;;14.10;10.73;;;;;;;;;;5052896;28;20446;-79
2023/07/21 06:37:00;;;;;;;11.90;10.07;;;;;;;;;;5053189;28;20932;-81
2023/07/21 06:39:27;;;;;;;12.77;9.70;;;;;;;;;;5049772;28;20462;-80
2023/07/21 06:41:53;;;;;;;13.70;11.27;;;;;;;;;;5053855;28;20474;-81
2023/07/21 06:44:20;;;;;;;16.80;11.03;;;;;;;;;;5052989;28;20456;-79
2023/07/21 06:46:47;;;;;;;12.87;10.40;;;;;;;;;;5049548;28;20478;-81
2023/07/21 06:49:14;;;;;;;11.70;8.93;;;;;;;;;;5053173;28;20446;-81
2023/07/21 06:51:42;;;;;;;10.67;9.57;;;;;;;;;;5052688;28;20571;-83
2023/07/21 06:54:09;;;;;;;10.43;9.40;;;;;;;;;;5052304;28;20444;-80
2023/07/21 06:56:36;;;;;;;10.80;9.77;;;;;;;;;;5054103;28;20475;-81
2023/07/21 06:59:02;;;;;;;10.33;9.10;;;;;;;;;;5049753;28;20506;-80
2023/07/21 07:01:28;;;;;;;12.57;9.80;;;;;;;;;;5049974;28;21016;-81
2023/07/21 07:03:55;;;;;;;10.90;8.67;;;;;;;;;;5036301;28;20929;-81
2023/07/21 07:06:22;;;;;;;10.10;9.10;;;;;;;;;;5046374;28;20446;-82
2023/07/21 07:08:50;;;;;;;13.47;9.30;;;;;;;;;;5044416;28;20534;-80
2023/07/21 07:11:17;;;;;;;12.23;9.00;;;;;;;;;;5050216;28;20500;-80
2023/07/21 07:13:43;;;;;;;10.20;7.90;;;;;;;;;;5046709;28;20499;-79
2023/07/21 07:16:11;;;;;;;14.27;9.10;;;;;;;;;;5043691;28;20479;-79
2023/07/21 07:18:37;;;;;;;11.77;9.10;;;;;;;;;;5053910;28;20472;-79
2023/07/21 07:21:04;;;;;;;11.90;10.57;;;;;;;;;;5053443;28;20958;-79
2023/07/21 07:23:30;;;;;;;10.33;9.23;;;;;;;;;;5041595;28;20989;-79
2023/07/21 07:25:59;;;;;;;10.60;8.40;;;;;;;;;;5044520;28;20472;-79
2023/07/21 07:28:25;;;;;;;9.87;7.70;;;;;;;;;;5053380;28;20442;-80
2023/07/21 07:30:52;;;;;;;10.70;8.60;;;;;;;;;;5050013;28;20498;-79
2023/07/21 07:33:18;;;;;;;9.33;8.27;;;;;;;;;;5053279;28;20456;-79
2023/07/21 07:35:47;;;;;;;12.93;8.77;;;;;;;;;;5058625;28;20487;-81
2023/07/21 07:38:14;;;;;;;9.47;8.17;;;;;;;;;;5053420;28;21055;-79
2023/07/21 07:40:42;;;;;;;7.77;7.00;;;;;;;;;;5053132;28;20468;-79
2023/07/21 07:43:11;;;;;;;9.37;7.37;;;;;;;;;;5051929;28;20447;-82
2023/07/21 07:45:37;;;;;;;9.57;7.00;;;;;;;;;;5047458;28;20476;-79
2023/07/21 07:48:04;;;;;;;7.33;5.67;;;;;;;;;;5051586;28;20460;-79
2023/07/21 07:50:31;;;;;;;8.37;6.10;;;;;;;;;;5051627;28;20539;-79
2023/07/21 07:52:59;;;;;;;6.13;5.53;;;;;;;;;;5047384;28;20464;-79
2023/07/21 07:55:26;;;;;;;5.97;5.07;;;;;;;;;;5043934;28;20463;-80
2023/07/21 07:57:53;;;;;;;5.37;4.87;;;;;;;;;;5053290;28;20467;-81
2023/07/21 08:00:21;;;;;;;10.53;4.90;;;;;;;;;;5047761;28;20482;-80
2023/07/21 08:02:47;;;;;;;9.20;5.30;;;;;;;;;;5042324;28;20449;-80
2023/07/21 08:05:15;;;;;;;4.20;3.80;;;;;;;;;;5044117;28;20448;-81
2023/07/21 08:07:41;;;;;;;5.47;4.40;;;;;;;;;;5052020;28;20480;-80
2023/07/21 08:10:09;;;;;;;11.97;5.00;;;;;;;;;;5047997;28;20440;-81
2023/07/21 08:12:35;;;;;;;15.30;7.47;;;;;;;;;;5047562;28;20483;-80
2023/07/21 08:15:01;;;;;;;6.50;4.07;;;;;;;;;;5049351;28;20459;-80
2023/07/21 08:17:29;;;;;;;4.80;2.90;;;;;;;;;;5050792;28;20482;-80
2023/07/21 08:19:56;;;;;;;3.57;3.27;;;;;;;;;;5044278;28;20559;-80
2023/07/21 08:22:22;;;;;;;3.37;3.07;;;;;;;;;;5042012;28;20477;-80
2023/07/21 08:24:49;;;;;;;6.23;3.20;;;;;;;;;;5051334;28;20440;-78
2023/07/21 08:27:15;;;;;;;4.30;3.10;;;;;;;;;;5051330;28;20534;-80
2023/07/21 08:29:42;;;;;;;4.23;3.03;;;;;;;;;;5053416;28;20455;-80
2023/07/21 08:32:09;;;;;;;4.40;3.37;;;;;;;;;;5043415;28;20476;-80
2023/07/21 08:34:37;;;;;;;4.53;3.43;;;;;;;;;;5047297;28;20946;-81
2023/07/21 08:37:05;;;;;;;5.23;3.03;;;;;;;;;;5043294;28;20857;-80
2023/07/21 08:39:31;;;;;;;3.60;3.10;;;;;;;;;;5045487;28;20476;-80
2023/07/21 08:42:00;;;;;;;4.53;3.23;;;;;;;;;;5049314;28;20475;-80
2023/07/21 08:44:27;;;;;;;4.47;4.03;;;;;;;;;;5049444;28;20463;-80
2023/07/21 08:46:53;;;;;;;6.43;3.00;;;;;;;;;;5028284;28;20472;-80
2023/07/21 08:49:20;;;;;;;4.23;3.27;;;;;;;;;;5028184;28;20488;-81
2023/07/21 08:51:49;;;;;;;4.70;3.53;;;;;;;;;;5032442;28;20465;-80
2023/07/21 08:54:15;;;;;;;3.20;3.00;;;;;;;;;;5032561;28;20444;-80
2023/07/21 08:56:41;;;;;;;3.43;3.13;;;;;;;;;;5032603;28;20990;-80
2023/07/21 08:59:08;;;;;;;2.65;2.45;;;;;;;;;;5030856;28;20468;-80
2023/07/21 09:01:34;;;;;;;3.77;3.10;;;;;;;;;;5029580;28;20488;-80
2023/07/21 09:04:00;;;;;;;2.43;2.20;;;;;;;;;;5033127;28;20457;-80
2023/07/21 09:06:27;;;;;;;4.83;2.70;;;;;;;;;;5027052;28;20472;-80
2023/07/21 09:08:56;;;;;;;3.23;2.57;;;;;;;;;;5031389;28;20481;-80
2023/07/21 09:11:25;;;;;;;3.53;2.53;;;;;;;;;;5022842;28;20469;-80
2023/07/21 09:13:52;;;;;;;5.00;2.70;;;;;;;;;;5032559;28;20455;-81
2023/07/21 09:16:19;;;;;;;3.93;2.87;;;;;;;;;;5020440;28;20487;-80
2023/07/21 09:18:47;;;;;;;4.03;3.03;;;;;;;;;;5027115;28;20512;-80
2023/07/21 09:21:17;;;;;;;6.03;3.10;;;;;;;;;;5031146;28;20481;-80
2023/07/21 09:23:43;;;;;;;4.73;3.30;;;;;;;;;;5026625;28;20514;-81
2023/07/21 09:26:11;;;;;;;3.70;2.93;;;;;;;;;;5025801;28;20469;-81
2023/07/21 09:28:41;;;;;;;2.80;2.60;;;;;;;;;;5022307;28;20528;-81
2023/07/21 09:31:07;;;;;;;3.37;2.30;;;;;;;;;;5034328;28;20468;-80
2023/07/21 09:33:37;;;;;;;8.47;3.00;;;;;;;;;;5030754;28;20445;-79
2023/07/21 09:36:04;;;;;;;2.97;2.73;;;;;;;;;;5033743;28;20551;-80
2023/07/21 09:38:31;;;;;;;3.37;3.17;;;;;;;;;;5031535;28;20468;-80
2023/07/21 09:41:00;;;;;;;6.67;3.80;;;;;;;;;;5029750;28;20486;-80
2023/07/21 09:43:30;;;;;;;4.40;3.10;;;;;;;;;;5016320;28;20931;-80
2023/07/21 09:45:57;;;;;;;3.33;3.03;;;;;;;;;;5025538;28;20472;-80
2023/07/21 09:48:23;;;;;;;3.97;3.60;;;;;;;;;;5029970;28;20461;-79
2023/07/21 09:50:50;;;;;;;3.23;2.90;;;;;;;;;;5035912;28;20468;-80
2023/07/21 09:53:20;;;;;;;3.63;2.70;;;;;;;;;;5035708;28;20460;-80
2023/07/21 09:55:49;;;;;;;3.10;2.40;;;;;;;;;;5030318;28;20467;-80
2023/07/21 09:58:17;;;;;;;5.13;2.57;;;;;;;;;;5032506;28;20479;-80
2023/07/21 10:00:45;;;;;;;4.23;2.43;;;;;;;;;;5035571;28;20465;-80
2023/07/21 10:03:12;;;;;;;3.10;2.73;;;;;;;;;;5033745;28;20457;-80
2023/07/21 10:05:39;;;;;;;5.63;3.03;;;;;;;;;;5039401;28;20474;-80
2023/07/21 10:08:06;;;;;;;7.27;3.27;;;;;;;;;;5049762;28;20518;-80
2023/07/21 10:10:33;;;;;;;4.60;3.60;;;;;;;;;;5055076;28;20478;-80
2023/07/21 10:13:04;;;;;;;5.73;3.70;;;;;;;;;;5054327;28;20821;-80
2023/07/21 10:15:31;;;;;;;5.00;3.90;;;;;;;;;;5049775;28;20467;-80
2023/07/21 10:18:00;;;;;;;4.87;4.03;;;;;;;;;;5055249;28;20487;-80
2023/07/21 10:20:43;;;;;;;4.53;3.50;;;;;;;;;;5046046;28;20892;-80
2023/07/21 10:23:10;;;;;;;3.27;2.97;;;;;;;;;;5034724;28;20453;-80
2023/07/21 10:25:47;;;;;;;3.00;2.80;;;;;;;;;;5025603;28;20468;-81
2023/07/21 10:28:13;;;;;;;4.63;2.83;;;;;;;;;;5035738;28;20483;-80
2023/07/21 10:30:40;;;;;;;2.93;2.43;;;;;;;;;;5034692;28;20473;-80
2023/07/21 10:33:17;;;;;;;7.30;2.80;;;;;;;;;;5035562;28;20452;-82
2023/07/21 10:35:44;;;;;;;2.87;2.53;;;;;;;;;;5024451;28;20474;-81
2023/07/21 10:38:24;;;;;;;2.77;2.20;;;;;;;;;;5035412;28;20468;-81
2023/07/21 10:40:51;;;;;;;2.73;2.40;;;;;;;;;;5032096;28;20500;-81
2023/07/21 10:43:17;;;;;;;3.07;2.70;;;;;;;;;;5034632;28;20453;-80
2023/07/21 10:45:49;;;;;;;3.50;1.90;;;;;;;;;;5026995;28;20468;-80
2023/07/21 10:48:17;;;;;;;2.53;2.33;;;;;;;;;;5032283;28;20476;-80
2023/07/21 10:50:48;;;;;;;3.43;2.07;;;;;;;;;;5035465;28;20471;-80
2023/07/21 10:53:14;;;;;;;2.83;2.20;;;;;;;;;;5045376;28;20811;-81
2023/07/21 10:55:41;;;;;;;2.23;2.03;;;;;;;;;;5050567;28;21060;-80
2023/07/21 10:58:07;;;;;;;2.30;2.10;;;;;;;;;;5052041;28;20470;-80
2023/07/21 11:00:43;;;;;;;5.77;2.23;;;;;;;;;;5044974;28;20475;-80
2023/07/21 11:03:10;;;;;;;2.83;1.90;;;;;;;;;;5048072;28;20934;-81
2023/07/21 11:05:37;;;;;;;1.77;1.30;;;;;;;;;;5050071;28;20472;-81
2023/07/21 11:08:04;;;;;;;3.20;1.80;;;;;;;;;;5044637;28;21055;-81
2023/07/21 11:10:32;;;;;;;2.40;1.87;;;;;;;;;;5037902;28;20527;-78
2023/07/21 11:12:59;;;;;;;1.53;1.43;;;;;;;;;;5071450;28;20542;-78
2023/07/21 11:15:26;;;;;;;2.47;1.70;;;;;;;;;;5054243;28;20812;-79
2023/07/21 11:17:57;;;;;;;4.90;1.87;;;;;;;;;;5054636;28;21274;-78
2023/07/21 11:20:24;;;;;;;2.23;1.73;;;;;;;;;;5046365;28;20472;-79
2023/07/21 11:22:52;;;;;;;1.70;1.40;;;;;;;;;;5054756;28;20443;-79
2023/07/21 11:25:18;;;;;;;1.63;1.50;;;;;;;;;;5049559;28;20937;-79
2023/07/21 11:27:46;;;;;;;2.03;1.80;;;;;;;;;;5055203;28;20475;-79
2023/07/21 11:30:16;;;;;;;1.57;1.47;;;;;;;;;;5049763;28;20456;-80
2023/07/21 11:32:43;;;;;;;1.87;1.73;;;;;;;;;;5042194;28;20544;-80
2023/07/21 11:35:10;;;;;;;2.90;1.70;;;;;;;;;;5053920;28;20463;-80
2023/07/21 11:37:37;;;;;;;2.13;1.37;;;;;;;;;;5054386;28;20487;-80
2023/07/21 11:40:08;;;;;;;1.47;1.30;;;;;;;;;;5048537;28;20480;-80
2023/07/21 11:42:45;;;;;;;2.00;1.63;;;;;;;;;;5022266;28;20467;-80
2023/07/21 11:45:31;;;;;;;1.70;1.27;;;;;;;;;;5026573;28;20486;-80
2023/07/21 11:47:57;;;;;;;2.37;1.60;;;;;;;;;;5049049;28;20480;-79
2023/07/21 11:50:24;;;;;;;2.10;1.97;;;;;;;;;;5053001;28;20440;-80
2023/07/21 11:52:50;;;;;;;1.57;1.37;;;;;;;;;;5052899;28;20455;-80
2023/07/21 11:55:18;;;;;;;1.40;1.30;;;;;;;;;;5051745;28;20460;-80
2023/07/21 11:57:44;;;;;;;1.50;1.40;;;;;;;;;;5036803;28;20484;-79
2023/07/21 12:00:12;;;;;;;1.50;1.40;;;;;;;;;;5033974;28;20456;-80
2023/07/21 12:02:41;;;;;;;3.17;1.60;;;;;;;;;;5042791;28;20444;-80
2023/07/21 12:05:07;;;;;;;2.20;1.43;;;;;;;;;;5049333;28;20505;-80
2023/07/21 12:07:34;;;;;;;1.50;1.40;;;;;;;;;;5053754;28;20486;-80
2023/07/21 12:10:00;;;;;;;7.40;1.60;;;;;;;;;;5045548;28;20452;-80
2023/07/21 12:12:28;;;;;;;4.03;1.30;;;;;;;;;;5042773;28;20492;-80
2023/07/21 12:14:55;;;;;;;1.40;1.30;;;;;;;;;;5043239;28;20440;-79
2023/07/21 12:17:23;;;;;;;2.40;1.50;;;;;;;;;;5034261;28;20547;-80
2023/07/21 12:19:49;;;;;;;2.07;1.87;;;;;;;;;;5031273;28;20989;-80
2023/07/21 12:22:15;;;;;;;2.13;1.60;;;;;;;;;;5033278;28;20487;-80
2023/07/21 12:24:42;;;;;;;3.10;1.40;;;;;;;;;;5030980;28;20476;-80
2023/07/21 12:27:08;;;;;;;3.30;1.60;;;;;;;;;;5032020;28;20484;-80
2023/07/21 12:29:37;;;;;;;1.50;1.40;;;;;;;;;;5019068;28;21021;-79
2023/07/21 12:32:03;;;;;;;2.40;1.70;;;;;;;;;;5038441;28;21040;-80
2023/07/21 12:34:29;;;;;;;3.80;1.40;;;;;;;;;;5031172;28;20468;-80
2023/07/21 12:36:58;;;;;;;1.50;1.27;;;;;;;;;;5041084;28;20468;-79
2023/07/21 12:39:24;;;;;;;2.30;1.40;;;;;;;;;;5049179;28;20977;-80
2023/07/21 12:41:50;;;;;;;2.30;1.47;;;;;;;;;;5052557;28;20471;-79
2023/07/21 12:44:17;;;;;;;2.17;1.30;;;;;;;;;;5051986;28;20463;-80
2023/07/21 12:46:44;;;;;;;1.77;1.43;;;;;;;;;;5030097;28;20469;-80
2023/07/21 12:49:12;;;;;;;2.03;1.63;;;;;;;;;;5033444;28;20990;-80
2023/07/21 12:51:38;;;;;;;2.13;1.30;;;;;;;;;;5031886;28;20544;-80
2023/07/21 12:54:05;;;;;;;2.70;1.33;;;;;;;;;;5023137;28;20442;-80
2023/07/21 12:56:31;;;;;;;2.00;1.60;;;;;;;;;;5030625;28;20483;-79
2023/07/21 12:58:58;;;;;;;1.97;1.20;;;;;;;;;;5031719;28;20464;-80
2023/07/21 13:01:24;;;;;;;1.80;1.10;;;;;;;;;;5028301;28;20480;-80
2023/07/21 13:03:52;;;;;;;1.43;1.30;;;;;;;;;;5032654;28;20472;-80
2023/07/21 13:06:18;;;;;;;1.70;1.60;;;;;;;;;;5034488;28;20487;-81
2023/07/21 13:08:44;;;;;;;3.17;1.60;;;;;;;;;;5037662;28;20845;-80
2023/07/21 13:11:11;;;;;;;1.87;1.67;;;;;;;;;;5035385;28;20469;-80
2023/07/21 13:13:37;;;;;;;1.63;1.50;;;;;;;;;;5029297;28;20460;-80
2023/07/21 13:16:04;;;;;;;3.47;1.40;;;;;;;;;;5025921;28;20476;-81
2023/07/21 13:18:30;;;;;;;1.17;1.10;;;;;;;;;;5036920;28;20460;-80
2023/07/21 13:20:58;;;;;;;2.77;1.67;;;;;;;;;;5032900;28;20476;-81
2023/07/21 13:23:24;;;;;;;1.83;1.50;;;;;;;;;;5036686;28;20456;-81
2023/07/21 13:25:51;;;;;;;1.43;1.27;;;;;;;;;;5025541;28;20473;-81
2023/07/21 13:28:17;;;;;;;1.27;1.17;;;;;;;;;;5023485;28;20476;-80
2023/07/21 13:30:44;;;;;;;1.63;1.40;;;;;;;;;;5036124;28;20472;-81
2023/07/21 13:33:10;;;;;;;1.90;1.70;;;;;;;;;;5029912;28;20961;-81
2023/07/21 13:35:36;;;;;;;2.13;1.40;;;;;;;;;;5035342;28;20460;-80
2023/07/21 13:38:04;;;;;;;1.90;1.70;;;;;;;;;;5037219;28;20489;-81
2023/07/21 13:40:30;;;;;;;2.83;1.67;;;;;;;;;;5022337;28;20465;-81
2023/07/21 13:42:57;;;;;;;4.27;1.50;;;;;;;;;;5037190;28;20868;-80
2023/07/21 13:45:23;;;;;;;1.97;1.30;;;;;;;;;;5022314;28;20457;-81
2023/07/21 13:47:50;;;;;;;1.40;1.30;;;;;;;;;;5049767;28;20487;-80
2023/07/21 13:50:16;;;;;;;1.27;1.17;;;;;;;;;;5044266;28;20443;-81
2023/07/21 13:52:43;;;;;;;1.50;1.40;;;;;;;;;;5054353;28;20464;-81
2023/07/21 13:55:11;;;;;;;2.17;1.20;;;;;;;;;;5043920;28;20447;-81
2023/07/21 13:57:37;;;;;;;2.93;1.47;;;;;;;;;;5034336;28;20489;-80
2023/07/21 14:00:05;;;;;;;1.27;1.17;;;;;;;;;;5029642;28;20445;-81
2023/07/21 14:02:32;;;;;;;2.23;1.67;;;;;;;;;;5035036;28;20481;-80
2023/07/21 14:04:58;;;;;;;2.30;1.43;;;;;;;;;;5029781;28;20450;-80
2023/07/21 14:07:25;;;;;;;1.60;1.10;;;;;;;;;;5036398;28;20477;-80
2023/07/21 14:09:51;;;;;;;1.30;1.20;;;;;;;;;;5037126;28;20460;-80
2023/07/21 14:12:19;;;;;;;1.33;1.23;;;;;;;;;;5036279;28;20461;-81
2023/07/21 14:14:46;;;;;;;1.87;1.33;;;;;;;;;;5035272;28;20449;-81
2023/07/21 14:17:13;;;;;;;1.67;1.40;;;;;;;;;;5034291;28;20465;-80
2023/07/21 14:19:41;;;;;;;1.30;1.10;;;;;;;;;;5024502;28;20437;-81
2023/07/21 14:22:08;;;;;;;2.30;1.10;;;;;;;;;;5029433;28;20994;-81
2023/07/21 14:24:34;;;;;;;2.20;1.43;;;;;;;;;;5033263;28;20457;-81
2023/07/21 14:27:00;;;;;;;1.20;1.10;;;;;;;;;;5036676;28;20477;-80
2023/07/21 14:29:28;;;;;;;1.73;1.40;;;;;;;;;;5035098;28;20464;-81
2023/07/21 14:31:54;;;;;;;1.67;1.57;;;;;;;;;;5023815;28;20470;-81
2023/07/21 14:34:20;;;;;;;1.53;1.40;;;;;;;;;;5029228;28;20448;-81
2023/07/21 14:36:47;;;;;;;1.80;1.40;;;;;;;;;;5032075;28;20484;-81
2023/07/21 14:39:13;;;;;;;2.30;1.90;;;;;;;;;;5034164;28;20547;-80
2023/07/21 14:41:40;;;;;;;1.80;1.70;;;;;;;;;;5031491;28;20483;-80